Cedaredge, CO

11:54 PM MDT am 29. September 2014 (GMT -0600)
Montrose Regional | Change Station
CLOSE
Current Station
Flughafen
Location: Montrose,
Höhe: 5758 ft
Wetterstationen in der Umgebung

Höhe 5758 ft 38.51 °N, 107.90 °W | Updated 1 hour ago

Bedeckt
Bedeckt
44 °F
gefühlte 44 °F
N
0
Wind Wechselnd Wind aus Nord

Heute
Max. -- | schwach -- °F
--% Regenrisiko
Gestern
Max. -- | schwach -- °F
Precip. -- inch
7:05 AM 6:57 PM
Erstes Viertel, 33% visible
Druck 30.01 inch
Sichtweite 10.0 Meilen
Wolken Heiter
Taupunkt 42 °F
Feuchtigkeit 93%
Regen 0.12 inch
Schneehöhe 0 in , 1 in , 1 in
UV 0 von 12
Pollen 3.50 von 12
Luftqualität Nicht verfügbar..
Flu Activity Nicht verfügbar..
METAR KMTJ 300453Z AUTO 00000KT 10SM CLR 07/06 A3012 RMK AO2 SLP160 T00670056

More Conditions Fewer Conditions

Druck 30.01 inch
Sichtweite 10.0 Meilen
Wolken Heiter
Taupunkt 42 °F
Feuchtigkeit 93%
Regen 0.12 inch
Schneehöhe 0 in , 1 in , 1 in
UV 0 von 12
Pollen 3.50 von 12
Luftqualität Nicht verfügbar..
Flu Activity Nicht verfügbar..
METAR KMTJ 300453Z AUTO 00000KT 10SM CLR 07/06 A3012 RMK AO2 SLP160 T00670056

More Conditions Fewer Conditions

10-Day Weather Forecast

Almanac

Astronomie

Sep. 29, 2014 Aufgang Untergang
Genaue Zeit 07:05 MDT 18:57 MDT
Bürgerliche Dämmerung 06:39 MDT 19:23 MDT
Nautische Dämmerung 06:08 MDT 19:54 MDT
Astronomische Dämmerung 05:36 MDT 20:26 MDT
Mond 12:18 MDT (9/29) 22:36 MDT (9/29)
Länge des sichtbaren Lichts 12h 44m
Tageslänge
11h 51m
Tomorrow will be 2m 30s shorter.
Erstes Viertel, 33% of the Moon is Illuminated
Sept 30
Erstes Viertel
Okt 1
Erstes Viertel
Okt 8
Vollmond
Okt 15
Letztes Viertel
Okt 23
Neu

Gestrige Extrema

State Highs State Lows

Community

WunderPhotos

Upload Photos

1,757,577 Fotos hochgeladen!

Nearby

Schneehöhe

Station Depth Höhe
Trapper Lake 0 in 9700 ft
North Lost Trail 1 in 9200 ft
Summit Ranch 1 in 9400 ft
Grayback 2 in 11620 ft
Lone Cone 8 in 9600 ft

Erdbebenaktivität

Stadt Distance Mag. Time & Date
No recent earthquake activity has been reported nearby.
Minimum magnitude displayed is 2.5.

küstennahe Wassertemperaturen

Ort Temperatur
Kein Stationsbericht

Wetterstationen in der Umgebung